Time;durP1;ratioP1;P1;durP2;ratioP2;P2;SDS_P1;SDS_P2;PMS_P1;PMS_P2;Temp;Humidity;BMP_temperature;BMP_pressure;BME280_temperature;BME280_humidity;BME280_pressure;Samples;Min_cycle;Max_cycle;Signal;HPM_P1;HPM_P2
2022/03/05 14:44:42;;;;;;;8.23;4.93;;;;;;;17.34;25.04;100816.91;10261616;27;43692;-73
2022/03/05 14:49:34;;;;;;;6.10;4.60;;;;;;;17.74;25.12;100812.34;10239357;27;66139;-73
2022/03/05 14:54:26;;;;;;;9.83;4.93;;;;;;;18.15;25.40;100812.84;10241617;27;66471;-72
2022/03/05 14:59:21;;;;;;;6.55;4.28;;;;;;;18.21;25.66;100811.69;10239752;27;66197;-72
2022/03/05 15:04:15;;;;;;;5.18;3.85;;;;;;;18.41;25.72;100805.19;10240714;27;65660;-72
2022/03/05 15:09:07;;;;;;;6.05;4.25;;;;;;;18.46;26.08;100816.13;10239785;27;65589;-72
2022/03/05 15:14:01;;;;;;;6.65;3.88;;;;;;;18.60;26.04;100803.38;10240190;27;65540;-72
2022/03/05 15:18:53;;;;;;;5.15;3.50;;;;;;;18.70;26.26;100805.22;10239634;27;65602;-73
2022/03/05 15:23:46;;;;;;;4.88;3.60;;;;;;;18.76;26.40;100804.84;10239948;27;65624;-72
2022/03/05 15:28:41;;;;;;;5.80;3.83;;;;;;;18.81;26.65;100809.50;10224246;27;64444;-72
2022/03/05 15:33:36;;;;;;;3.85;3.40;;;;;;;18.82;26.76;100802.91;10239014;27;66414;-72
2022/03/05 15:38:28;;;;;;;3.95;3.15;;;;;;;18.91;26.80;100801.94;10230691;27;65454;-72
2022/03/05 15:43:21;;;;;;;3.72;3.08;;;;;;;19.02;27.02;100810.06;10240985;27;64255;-72
2022/03/05 15:48:13;;;;;;;3.92;3.38;;;;;;;18.90;27.21;100808.53;10238417;27;66971;-72
2022/03/05 15:53:06;;;;;;;4.95;3.30;;;;;;;18.80;27.27;100808.69;10227512;27;65657;-72
2022/03/05 15:57:58;;;;;;;3.53;2.97;;;;;;;18.78;27.57;100810.06;10211349;27;65595;-72
2022/03/05 16:02:51;;;;;;;3.10;2.80;;;;;;;18.77;27.78;100811.16;10212708;27;66156;-72
2022/03/05 16:07:43;;;;;;;4.20;2.80;;;;;;;18.72;27.92;100811.22;10205259;27;66705;-72
2022/03/05 16:12:35;;;;;;;4.25;2.90;;;;;;;18.73;28.12;100810.13;10211436;27;66773;-72
2022/03/05 16:17:27;;;;;;;2.88;2.58;;;;;;;18.74;28.25;100817.25;10211119;27;65595;-72
2022/03/05 16:22:21;;;;;;;2.53;2.33;;;;;;;18.69;28.35;100811.81;10212005;27;67170;-72
2022/03/05 16:27:13;;;;;;;3.15;2.80;;;;;;;18.68;28.42;100802.75;10209874;27;66147;-72
2022/03/05 16:32:06;;;;;;;2.58;2.20;;;;;;;18.68;28.57;100810.97;10211337;27;66389;-72
2022/03/05 16:36:58;;;;;;;3.15;2.67;;;;;;;18.72;28.63;100811.22;10210577;27;66372;-72
2022/03/05 16:41:51;;;;;;;2.90;2.38;;;;;;;18.70;28.62;100811.53;10211111;27;66133;-72
2022/03/05 16:46:44;;;;;;;4.40;2.80;;;;;;;18.71;28.77;100806.84;10209319;27;66524;-72
2022/03/05 16:51:36;;;;;;;3.10;2.40;;;;;;;18.72;29.14;100811.22;10204017;27;66755;-72
2022/03/05 16:56:28;;;;;;;4.47;2.40;;;;;;;18.68;29.11;100808.25;10209570;27;66349;-72
2022/03/05 17:01:21;;;;;;;3.63;2.70;;;;;;;18.69;29.34;100815.38;10211170;27;66068;-72
2022/03/05 17:06:13;;;;;;;3.72;2.53;;;;;;;18.77;29.19;100809.25;10207635;27;66204;-70
2022/03/05 17:11:05;;;;;;;3.22;2.42;;;;;;;18.77;29.43;100817.47;10202578;27;66214;-71
2022/03/05 17:15:57;;;;;;;9.80;2.95;;;;;;;18.85;29.47;100821.53;10199318;27;65640;-73
2022/03/05 17:20:50;;;;;;;7.35;2.85;;;;;;;19.00;29.99;100829.59;10189671;27;66967;-73
2022/03/05 17:25:42;;;;;;;3.00;2.33;;;;;;;19.16;30.01;100838.47;10194480;27;65876;-73
2022/03/05 17:30:35;;;;;;;4.30;2.63;;;;;;;19.19;30.08;100840.66;10209461;27;65717;-71
2022/03/05 17:35:27;;;;;;;2.78;2.45;;;;;;;19.22;30.05;100845.53;10191192;27;66459;-71
2022/03/05 17:40:21;;;;;;;7.28;2.75;;;;;;;19.14;29.97;100851.69;10199765;27;65587;-72
2022/03/05 17:45:14;;;;;;;3.00;2.63;;;;;;;19.12;29.97;100859.44;10210098;27;65536;-71
2022/03/05 17:50:07;;;;;;;3.28;2.50;;;;;;;19.12;30.02;100853.94;10210943;27;66771;-71
2022/03/05 17:54:59;;;;;;;6.57;2.40;;;;;;;19.23;30.17;100855.44;10207289;27;65614;-72
2022/03/05 17:59:53;;;;;;;5.10;2.80;;;;;;;19.28;30.69;100849.88;10186120;27;65623;-72
2022/03/05 18:04:45;;;;;;;2.83;2.28;;;;;;;19.23;30.91;100850.75;10208700;27;66108;-72
2022/03/05 18:09:37;;;;;;;2.92;2.30;;;;;;;19.33;30.64;100847.91;10206835;27;65548;-71
2022/03/05 18:14:29;;;;;;;4.40;2.40;;;;;;;19.39;30.72;100856.88;10202022;27;65469;-70
2022/03/05 18:19:24;;;;;;;2.55;2.25;;;;;;;19.29;30.62;100851.50;10209212;27;65671;-71
2022/03/05 18:24:16;;;;;;;3.83;2.58;;;;;;;19.20;31.21;100859.56;10205579;27;65090;-72
2022/03/05 18:29:08;;;;;;;6.20;2.78;;;;;;;19.27;31.12;100861.97;10204857;27;65596;-72
2022/03/05 18:34:01;;;;;;;4.18;2.47;;;;;;;19.32;31.08;100862.75;10206567;27;65608;-73
2022/03/05 18:38:54;;;;;;;6.57;2.70;;;;;;;19.26;31.10;100866.69;10206899;27;66998;-73
2022/03/05 18:43:46;;;;;;;3.22;2.28;;;;;;;19.39;30.53;100867.88;10206606;27;65767;-73
2022/03/05 18:48:38;;;;;;;3.75;2.10;;;;;;;19.37;30.59;100876.41;10206885;27;65535;-77
2022/03/05 18:53:30;;;;;;;4.63;2.60;;;;;;;19.38;31.05;100880.81;10206593;27;65574;-71
2022/03/05 18:58:24;;;;;;;4.78;2.40;;;;;;;19.40;31.41;100886.03;10204668;27;66410;-74
2022/03/05 19:03:16;;;;;;;3.53;2.30;;;;;;;19.44;31.47;100892.56;10206318;27;66350;-75
2022/03/05 19:08:08;;;;;;;3.60;2.33;;;;;;;19.44;31.34;100889.81;10205661;27;65633;-74
2022/03/05 19:13:00;;;;;;;3.75;2.60;;;;;;;19.49;31.20;100891.72;10182456;27;66277;-76
2022/03/05 19:17:53;;;;;;;3.85;2.38;;;;;;;19.46;31.62;100890.34;10206735;27;65571;-77
2022/03/05 19:22:45;;;;;;;2.42;2.22;;;;;;;19.44;31.38;100886.25;10204734;27;66411;-75
2022/03/05 19:27:38;;;;;;;7.60;2.50;;;;;;;19.51;31.41;100890.31;10205621;27;66509;-73
2022/03/05 19:32:30;;;;;;;4.70;2.47;;;;;;;19.57;31.35;100896.53;10212578;27;65574;-73
2022/03/05 19:37:23;;;;;;;3.15;2.60;;;;;;;19.45;31.40;100898.88;10206544;27;65722;-72
2022/03/05 19:42:15;;;;;;;3.72;2.20;;;;;;;19.57;30.96;100902.88;10212841;27;66474;-72
2022/03/05 19:47:07;;;;;;;2.78;2.03;;;;;;;19.56;31.08;100909.47;10211770;27;65524;-72
2022/03/05 19:51:59;;;;;;;3.10;2.22;;;;;;;19.59;30.93;100906.16;10211901;27;66144;-71
2022/03/05 19:56:53;;;;;;;2.58;2.10;;;;;;;19.61;30.85;100903.94;10212634;27;66347;-71
2022/03/05 20:01:47;;;;;;;3.63;2.30;;;;;;;19.61;30.79;100908.63;10210188;27;65608;-72
2022/03/05 20:06:39;;;;;;;3.25;2.55;;;;;;;19.60;30.67;100912.47;10209996;27;65530;-70
2022/03/05 20:11:31;;;;;;;4.15;2.28;;;;;;;19.62;30.87;100910.25;10211977;27;66389;-71
2022/03/05 20:16:24;;;;;;;3.28;2.28;;;;;;;19.62;30.73;100908.31;10211597;27;65626;-71
2022/03/05 20:21:16;;;;;;;2.65;2.15;;;;;;;19.56;30.80;100914.97;10210801;27;65615;-72
2022/03/05 20:26:08;;;;;;;2.78;2.40;;;;;;;19.64;30.93;100913.50;10208611;27;65497;-73
2022/03/05 20:31:00;;;;;;;2.45;2.25;;;;;;;19.64;30.87;100919.00;10205111;27;65607;-73
2022/03/05 20:35:54;;;;;;;3.42;2.42;;;;;;;19.66;30.75;100916.78;10200765;27;66683;-72
2022/03/05 20:40:46;;;;;;;2.58;2.33;;;;;;;19.61;30.85;100920.44;10210211;27;66501;-72
2022/03/05 20:45:38;;;;;;;2.40;2.20;;;;;;;19.65;30.92;100924.22;10202770;27;66114;-74
2022/03/05 20:50:30;;;;;;;4.50;2.40;;;;;;;19.64;31.06;100941.00;10197675;27;66351;-72
2022/03/05 20:55:24;;;;;;;2.83;2.25;;;;;;;19.64;30.99;100930.00;10205731;27;66394;-73
2022/03/05 21:00:16;;;;;;;2.47;2.28;;;;;;;19.69;30.61;100941.78;10209776;27;66311;-75
2022/03/05 21:05:08;;;;;;;3.33;2.45;;;;;;;19.72;30.61;100941.19;10208623;27;66355;-75
2022/03/05 21:10:00;;;;;;;2.10;2.00;;;;;;;19.71;30.66;100938.75;10209961;27;66321;-74
2022/03/05 21:14:54;;;;;;;2.72;2.30;;;;;;;19.71;30.48;100941.50;10209051;27;65604;-74
2022/03/05 21:19:46;;;;;;;2.53;2.33;;;;;;;19.70;30.71;100939.88;10209333;27;66124;-75
2022/03/05 21:24:38;;;;;;;2.80;2.47;;;;;;;19.61;30.88;100934.19;10208170;27;66394;-76
2022/03/05 21:29:30;;;;;;;3.13;2.47;;;;;;;19.60;30.75;100939.97;10211583;27;66190;-74
2022/03/05 21:34:23;;;;;;;3.10;2.42;;;;;;;19.65;30.95;100946.22;10209860;27;66377;-74
2022/03/05 21:39:16;;;;;;;2.60;2.40;;;;;;;19.66;30.90;100947.03;10209268;27;66124;-72
2022/03/05 21:44:08;;;;;;;4.32;2.75;;;;;;;19.63;30.93;100948.47;10207129;27;66169;-72
2022/03/05 21:49:00;;;;;;;2.67;2.38;;;;;;;19.67;30.78;100951.44;10209868;27;64393;-74
2022/03/05 21:53:53;;;;;;;2.78;2.58;;;;;;;19.66;30.86;100947.03;10208314;27;66168;-74
2022/03/05 21:58:47;;;;;;;2.80;2.35;;;;;;;19.66;30.69;100952.56;10210284;27;66573;-72
2022/03/05 22:03:39;;;;;;;7.65;2.83;;;;;;;19.62;30.86;100954.25;10206482;27;65250;-75
2022/03/05 22:08:31;;;;;;;3.40;2.65;;;;;;;19.65;30.92;100945.41;10208118;27;66230;-74
2022/03/05 22:13:25;;;;;;;3.83;2.40;;;;;;;19.63;31.06;100945.72;10211341;27;66450;-75
2022/03/05 22:18:17;;;;;;;3.78;2.58;;;;;;;19.70;30.71;100942.63;10208307;27;66277;-76
2022/03/05 22:23:09;;;;;;;3.10;2.20;;;;;;;19.69;30.95;100944.53;10206226;27;66264;-76
2022/03/05 22:28:01;;;;;;;4.45;2.53;;;;;;;19.70;30.92;100948.94;10208085;27;66814;-77
2022/03/05 22:32:55;;;;;;;3.03;2.38;;;;;;;19.71;31.04;100947.00;10207742;27;66219;-74
2022/03/05 22:37:47;;;;;;;5.22;2.40;;;;;;;19.68;30.93;100944.84;10207370;27;66414;-72
2022/03/05 22:42:39;;;;;;;3.22;2.63;;;;;;;19.65;30.85;100937.97;10206418;27;65576;-71
2022/03/05 22:47:31;;;;;;;4.35;2.40;;;;;;;19.64;30.86;100939.09;10207264;27;66586;-73
2022/03/05 22:52:24;;;;;;;3.00;2.38;;;;;;;19.63;30.96;100944.91;10201967;27;66326;-75
2022/03/05 22:57:16;;;;;;;2.63;2.33;;;;;;;19.62;30.70;100937.75;10207009;27;66092;-75
2022/03/05 23:12:29;;;;;;;3.10;2.60;;;;;;;19.60;30.87;100948.22;10214485;27;67286;-81
2022/03/05 23:17:21;;;;;;;3.13;2.63;;;;;;;19.60;30.55;100950.97;10215584;27;66055;-82
2022/03/05 23:22:13;;;;;;;3.40;2.70;;;;;;;19.58;30.76;100959.53;10212595;27;66299;-76
2022/03/05 23:27:05;;;;;;;3.20;2.90;;;;;;;19.53;30.83;100943.09;10211988;27;65534;-76
2022/03/05 23:31:58;;;;;;;3.00;2.70;;;;;;;19.58;30.71;100950.44;10214886;27;66296;-76
2022/03/05 23:36:50;;;;;;;3.08;2.70;;;;;;;19.59;30.59;100943.84;10214878;27;65491;-75
2022/03/05 23:41:42;;;;;;;3.90;2.90;;;;;;;19.61;30.65;100945.19;10213196;27;66340;-73
